LIBQ  Monte Scuro  Airport

Italy

Add Bookmark
Status
Operational
Latitude Longitude
39° 19' 12" N 16° 22' 47" E
39.320000 16.380000
Local (DST + 2) UTC (GMT + 1)
Mar 3, 2015 07:42 Mar 3, 2015 18:42
Sunrise-Sunset Local UTC
Begin Civil Twilight 05:55 04:55
Sunrise 06:22 05:22
Sunset 05:50 16:50
End Civil Twilight 06:16 17:16

Current Weather

METAR Observed VFR
LIBQ 031755Z 27007KT CAVOK 04/M02 Q1021 Tue, Mar 3, 2015 @ 17:55 UTC
(47 Minutes ago)
Visual Flight Rules
Wind Visibility Clouds Conditions
270° at 7 knots (13 kph) 10 km or more
  • Clear skies
  • No significant weather
Temperatures Readings Precipitation
Current Temp 4°C (39°F)
Dewpoint -2°C (28°F)
Humidity 65%
Altimeter 30.15"Hg
Sea Level Pressure 1021mb
Field Elevation 5643.04'
None Recorded

Additional weather within a 92.6km radius of LIBQ

Map ICAO Location
LICA 47.6km S (195°)
LIBC 70.2km E (121°)

24 Hour Weather History

Loading
-

24 Hour Weather Graphs

Loading
-

CheckWX.com is intended as a tool to help pilots better visualize weather data. It is not intended as a substitute for an official weather briefing obtained from a Flight Service Station. CheckWX.com does not meet the FAA requirements for an official pre-flight weather briefing. Therefore, it's important that pilots still call and obtain an official FSS pre-flight weather briefing.